sensor_id;sensor_type;location;lat;lon;timestamp;P1;durP1;ratioP1;P2;durP2;ratioP2
70545;SDS011;58098;51.680;5.134;2023-09-30T00:02:21;23.60;;;9.60;;
70545;SDS011;58098;51.680;5.134;2023-09-30T00:04:46;19.67;;;10.70;;
70545;SDS011;58098;51.680;5.134;2023-09-30T00:07:12;21.50;;;10.37;;
70545;SDS011;58098;51.680;5.134;2023-09-30T00:09:37;18.87;;;9.50;;
70545;SDS011;58098;51.680;5.134;2023-09-30T00:12:02;25.00;;;10.60;;
70545;SDS011;58098;51.680;5.134;2023-09-30T00:14:28;21.92;;;10.23;;
70545;SDS011;58098;51.680;5.134;2023-09-30T00:16:54;27.42;;;11.13;;
70545;SDS011;58098;51.680;5.134;2023-09-30T00:19:20;27.33;;;10.60;;
70545;SDS011;58098;51.680;5.134;2023-09-30T00:21:47;21.20;;;10.50;;
70545;SDS011;58098;51.680;5.134;2023-09-30T00:24:13;21.10;;;10.20;;
70545;SDS011;58098;51.680;5.134;2023-09-30T00:26:38;21.50;;;10.07;;
70545;SDS011;58098;51.680;5.134;2023-09-30T00:29:04;22.00;;;10.67;;
70545;SDS011;58098;51.680;5.134;2023-09-30T00:31:30;24.63;;;11.55;;
70545;SDS011;58098;51.680;5.134;2023-09-30T00:33:56;22.15;;;10.68;;
70545;SDS011;58098;51.680;5.134;2023-09-30T00:36:21;26.80;;;10.53;;
70545;SDS011;58098;51.680;5.134;2023-09-30T00:38:47;22.38;;;11.45;;
70545;SDS011;58098;51.680;5.134;2023-09-30T00:41:13;22.63;;;11.80;;
70545;SDS011;58098;51.680;5.134;2023-09-30T00:43:45;21.55;;;10.68;;
70545;SDS011;58098;51.680;5.134;2023-09-30T00:46:28;26.87;;;10.57;;
70545;SDS011;58098;51.680;5.134;2023-09-30T00:48:55;24.35;;;10.25;;
70545;SDS011;58098;51.680;5.134;2023-09-30T00:51:23;25.65;;;13.30;;
70545;SDS011;58098;51.680;5.134;2023-09-30T00:53:49;24.33;;;11.23;;
70545;SDS011;58098;51.680;5.134;2023-09-30T00:56:19;22.05;;;11.25;;
70545;SDS011;58098;51.680;5.134;2023-09-30T00:58:48;24.33;;;11.53;;
70545;SDS011;58098;51.680;5.134;2023-09-30T01:01:16;27.10;;;12.32;;
70545;SDS011;58098;51.680;5.134;2023-09-30T01:03:41;21.15;;;10.82;;
70545;SDS011;58098;51.680;5.134;2023-09-30T01:06:07;26.27;;;11.93;;
70545;SDS011;58098;51.680;5.134;2023-09-30T01:08:32;21.53;;;10.40;;
70545;SDS011;58098;51.680;5.134;2023-09-30T01:10:59;26.48;;;12.50;;
70545;SDS011;58098;51.680;5.134;2023-09-30T01:13:31;21.73;;;11.43;;
70545;SDS011;58098;51.680;5.134;2023-09-30T01:16:04;24.30;;;12.35;;
70545;SDS011;58098;51.680;5.134;2023-09-30T01:18:34;26.95;;;11.85;;
70545;SDS011;58098;51.680;5.134;2023-09-30T01:21:02;26.80;;;12.30;;
70545;SDS011;58098;51.680;5.134;2023-09-30T01:23:30;25.58;;;12.63;;
70545;SDS011;58098;51.680;5.134;2023-09-30T01:26:05;25.48;;;12.60;;
70545;SDS011;58098;51.680;5.134;2023-09-30T01:28:34;24.85;;;11.88;;
70545;SDS011;58098;51.680;5.134;2023-09-30T01:30:59;31.80;;;14.30;;
70545;SDS011;58098;51.680;5.134;2023-09-30T01:33:25;25.85;;;13.38;;
70545;SDS011;58098;51.680;5.134;2023-09-30T01:35:51;23.53;;;11.60;;
70545;SDS011;58098;51.680;5.134;2023-09-30T01:38:16;24.33;;;11.80;;
70545;SDS011;58098;51.680;5.134;2023-09-30T01:40:42;26.17;;;12.38;;
70545;SDS011;58098;51.680;5.134;2023-09-30T01:43:07;28.03;;;11.83;;
70545;SDS011;58098;51.680;5.134;2023-09-30T01:45:32;28.87;;;13.33;;
70545;SDS011;58098;51.680;5.134;2023-09-30T01:47:58;26.50;;;12.47;;
70545;SDS011;58098;51.680;5.134;2023-09-30T01:50:23;26.08;;;12.57;;
70545;SDS011;58098;51.680;5.134;2023-09-30T01:52:49;25.27;;;13.13;;
70545;SDS011;58098;51.680;5.134;2023-09-30T01:55:14;24.90;;;12.67;;
70545;SDS011;58098;51.680;5.134;2023-09-30T01:57:39;24.43;;;12.00;;
70545;SDS011;58098;51.680;5.134;2023-09-30T02:00:05;27.40;;;13.97;;
70545;SDS011;58098;51.680;5.134;2023-09-30T02:02:34;28.50;;;14.32;;
70545;SDS011;58098;51.680;5.134;2023-09-30T02:05:00;29.13;;;13.52;;
70545;SDS011;58098;51.680;5.134;2023-09-30T02:07:26;28.47;;;13.43;;
70545;SDS011;58098;51.680;5.134;2023-09-30T02:09:51;27.20;;;12.70;;
70545;SDS011;58098;51.680;5.134;2023-09-30T02:12:16;24.25;;;12.32;;
70545;SDS011;58098;51.680;5.134;2023-09-30T02:14:42;32.47;;;13.53;;
70545;SDS011;58098;51.680;5.134;2023-09-30T02:17:07;23.40;;;11.00;;
70545;SDS011;58098;51.680;5.134;2023-09-30T02:19:34;24.35;;;11.32;;
70545;SDS011;58098;51.680;5.134;2023-09-30T02:21:59;22.80;;;11.90;;
70545;SDS011;58098;51.680;5.134;2023-09-30T02:24:25;28.85;;;12.88;;
70545;SDS011;58098;51.680;5.134;2023-09-30T02:26:50;34.23;;;14.60;;
70545;SDS011;58098;51.680;5.134;2023-09-30T02:29:16;22.23;;;11.60;;
70545;SDS011;58098;51.680;5.134;2023-09-30T02:31:41;32.50;;;13.93;;
70545;SDS011;58098;51.680;5.134;2023-09-30T02:34:06;31.50;;;12.87;;
70545;SDS011;58098;51.680;5.134;2023-09-30T02:36:32;25.50;;;12.63;;
70545;SDS011;58098;51.680;5.134;2023-09-30T02:38:58;30.42;;;13.48;;
70545;SDS011;58098;51.680;5.134;2023-09-30T02:41:25;27.58;;;14.68;;
70545;SDS011;58098;51.680;5.134;2023-09-30T02:43:51;32.67;;;13.83;;
70545;SDS011;58098;51.680;5.134;2023-09-30T02:46:16;30.53;;;13.87;;
70545;SDS011;58098;51.680;5.134;2023-09-30T02:48:41;29.50;;;14.23;;
70545;SDS011;58098;51.680;5.134;2023-09-30T02:51:10;29.77;;;13.67;;
70545;SDS011;58098;51.680;5.134;2023-09-30T02:53:36;32.70;;;14.53;;
70545;SDS011;58098;51.680;5.134;2023-09-30T02:56:01;32.17;;;13.97;;
70545;SDS011;58098;51.680;5.134;2023-09-30T02:58:29;25.95;;;13.45;;
70545;SDS011;58098;51.680;5.134;2023-09-30T03:00:54;31.02;;;13.75;;
70545;SDS011;58098;51.680;5.134;2023-09-30T03:03:20;30.67;;;14.20;;
70545;SDS011;58098;51.680;5.134;2023-09-30T03:05:45;32.63;;;15.37;;
70545;SDS011;58098;51.680;5.134;2023-09-30T03:08:12;29.25;;;14.02;;
70545;SDS011;58098;51.680;5.134;2023-09-30T03:10:37;28.20;;;15.53;;
70545;SDS011;58098;51.680;5.134;2023-09-30T03:13:05;30.73;;;14.65;;
70545;SDS011;58098;51.680;5.134;2023-09-30T03:15:30;37.13;;;15.50;;
70545;SDS011;58098;51.680;5.134;2023-09-30T03:17:57;27.80;;;14.68;;
70545;SDS011;58098;51.680;5.134;2023-09-30T03:20:22;31.45;;;17.40;;
70545;SDS011;58098;51.680;5.134;2023-09-30T03:22:50;29.97;;;14.73;;
70545;SDS011;58098;51.680;5.134;2023-09-30T03:25:16;35.70;;;17.05;;
70545;SDS011;58098;51.680;5.134;2023-09-30T03:27:43;34.20;;;15.65;;
70545;SDS011;58098;51.680;5.134;2023-09-30T03:30:11;35.88;;;17.42;;
70545;SDS011;58098;51.680;5.134;2023-09-30T03:32:37;35.90;;;18.33;;
70545;SDS011;58098;51.680;5.134;2023-09-30T03:35:06;33.30;;;16.33;;
70545;SDS011;58098;51.680;5.134;2023-09-30T03:37:32;38.53;;;18.27;;
70545;SDS011;58098;51.680;5.134;2023-09-30T03:39:59;36.83;;;16.85;;
70545;SDS011;58098;51.680;5.134;2023-09-30T03:42:25;31.33;;;15.93;;
70545;SDS011;58098;51.680;5.134;2023-09-30T03:44:51;40.10;;;18.47;;
70545;SDS011;58098;51.680;5.134;2023-09-30T03:47:16;40.83;;;19.50;;
70545;SDS011;58098;51.680;5.134;2023-09-30T03:49:43;43.83;;;18.50;;
70545;SDS011;58098;51.680;5.134;2023-09-30T03:52:09;37.97;;;18.83;;
70545;SDS011;58098;51.680;5.134;2023-09-30T03:54:35;49.67;;;19.05;;
70545;SDS011;58098;51.680;5.134;2023-09-30T03:57:02;43.92;;;18.70;;
70545;SDS011;58098;51.680;5.134;2023-09-30T03:59:28;41.08;;;19.52;;
70545;SDS011;58098;51.680;5.134;2023-09-30T04:01:55;34.45;;;18.25;;
70545;SDS011;58098;51.680;5.134;2023-09-30T04:04:22;37.23;;;18.27;;
70545;SDS011;58098;51.680;5.134;2023-09-30T04:06:47;44.47;;;20.13;;
70545;SDS011;58098;51.680;5.134;2023-09-30T04:09:13;39.47;;;15.95;;
70545;SDS011;58098;51.680;5.134;2023-09-30T04:11:39;40.23;;;18.40;;
70545;SDS011;58098;51.680;5.134;2023-09-30T04:14:05;40.95;;;19.70;;
70545;SDS011;58098;51.680;5.134;2023-09-30T04:16:32;42.45;;;18.77;;
70545;SDS011;58098;51.680;5.134;2023-09-30T04:18:58;41.97;;;19.40;;
70545;SDS011;58098;51.680;5.134;2023-09-30T04:21:24;41.57;;;19.13;;
70545;SDS011;58098;51.680;5.134;2023-09-30T04:23:49;41.67;;;19.73;;
70545;SDS011;58098;51.680;5.134;2023-09-30T04:26:15;42.37;;;18.13;;
70545;SDS011;58098;51.680;5.134;2023-09-30T04:28:40;43.07;;;19.10;;
70545;SDS011;58098;51.680;5.134;2023-09-30T04:31:05;32.60;;;14.43;;
70545;SDS011;58098;51.680;5.134;2023-09-30T04:33:32;41.08;;;19.17;;
70545;SDS011;58098;51.680;5.134;2023-09-30T04:36:00;39.93;;;18.20;;
70545;SDS011;58098;51.680;5.134;2023-09-30T04:38:25;37.08;;;18.73;;
70545;SDS011;58098;51.680;5.134;2023-09-30T04:40:51;39.97;;;17.47;;
70545;SDS011;58098;51.680;5.134;2023-09-30T04:43:17;43.85;;;20.17;;
70545;SDS011;58098;51.680;5.134;2023-09-30T04:45:42;41.30;;;18.13;;
70545;SDS011;58098;51.680;5.134;2023-09-30T04:48:08;45.35;;;19.83;;
70545;SDS011;58098;51.680;5.134;2023-09-30T04:50:33;43.90;;;19.63;;
70545;SDS011;58098;51.680;5.134;2023-09-30T04:52:59;42.87;;;17.60;;
70545;SDS011;58098;51.680;5.134;2023-09-30T04:55:24;41.57;;;19.47;;
70545;SDS011;58098;51.680;5.134;2023-09-30T04:57:51;42.80;;;18.20;;
70545;SDS011;58098;51.680;5.134;2023-09-30T05:00:18;48.95;;;20.40;;
70545;SDS011;58098;51.680;5.134;2023-09-30T05:02:50;40.58;;;18.98;;
70545;SDS011;58098;51.680;5.134;2023-09-30T05:05:15;45.58;;;20.67;;
70545;SDS011;58098;51.680;5.134;2023-09-30T05:07:41;35.50;;;16.80;;
70545;SDS011;58098;51.680;5.134;2023-09-30T05:10:06;41.17;;;18.33;;
70545;SDS011;58098;51.680;5.134;2023-09-30T05:12:36;39.58;;;18.45;;
70545;SDS011;58098;51.680;5.134;2023-09-30T05:15:02;41.97;;;19.27;;
70545;SDS011;58098;51.680;5.134;2023-09-30T05:17:29;45.72;;;19.73;;
70545;SDS011;58098;51.680;5.134;2023-09-30T05:19:55;43.33;;;18.83;;
70545;SDS011;58098;51.680;5.134;2023-09-30T05:22:22;45.38;;;19.65;;
70545;SDS011;58098;51.680;5.134;2023-09-30T05:24:50;40.85;;;18.80;;
70545;SDS011;58098;51.680;5.134;2023-09-30T05:27:17;41.27;;;18.63;;
70545;SDS011;58098;51.680;5.134;2023-09-30T05:29:43;42.13;;;18.80;;
70545;SDS011;58098;51.680;5.134;2023-09-30T05:32:08;40.80;;;19.20;;
70545;SDS011;58098;51.680;5.134;2023-09-30T05:34:33;45.30;;;20.45;;
70545;SDS011;58098;51.680;5.134;2023-09-30T05:36:59;37.97;;;17.60;;
70545;SDS011;58098;51.680;5.134;2023-09-30T05:39:24;44.23;;;20.93;;
70545;SDS011;58098;51.680;5.134;2023-09-30T05:41:50;41.60;;;20.25;;
70545;SDS011;58098;51.680;5.134;2023-09-30T05:44:16;44.90;;;19.90;;
70545;SDS011;58098;51.680;5.134;2023-09-30T05:46:41;48.10;;;20.77;;
70545;SDS011;58098;51.680;5.134;2023-09-30T05:49:08;43.67;;;21.10;;
70545;SDS011;58098;51.680;5.134;2023-09-30T05:51:38;48.95;;;20.60;;
70545;SDS011;58098;51.680;5.134;2023-09-30T05:54:07;44.30;;;19.75;;
70545;SDS011;58098;51.680;5.134;2023-09-30T05:56:35;43.90;;;20.13;;
70545;SDS011;58098;51.680;5.134;2023-09-30T05:59:02;37.30;;;17.85;;
70545;SDS011;58098;51.680;5.134;2023-09-30T06:01:28;39.92;;;18.55;;
70545;SDS011;58098;51.680;5.134;2023-09-30T06:03:53;44.57;;;18.70;;
70545;SDS011;58098;51.680;5.134;2023-09-30T06:06:18;46.73;;;19.80;;
70545;SDS011;58098;51.680;5.134;2023-09-30T06:08:44;41.70;;;18.57;;
70545;SDS011;58098;51.680;5.134;2023-09-30T06:11:16;49.63;;;19.43;;
70545;SDS011;58098;51.680;5.134;2023-09-30T06:13:42;42.75;;;18.15;;
70545;SDS011;58098;51.680;5.134;2023-09-30T06:16:08;43.57;;;19.47;;
70545;SDS011;58098;51.680;5.134;2023-09-30T06:18:36;40.45;;;17.13;;
70545;SDS011;58098;51.680;5.134;2023-09-30T06:21:01;42.43;;;19.07;;
70545;SDS011;58098;51.680;5.134;2023-09-30T06:23:28;50.35;;;20.67;;
70545;SDS011;58098;51.680;5.134;2023-09-30T06:25:54;48.30;;;20.85;;
70545;SDS011;58098;51.680;5.134;2023-09-30T06:28:20;41.38;;;19.17;;
70545;SDS011;58098;51.680;5.134;2023-09-30T06:30:51;40.97;;;18.85;;
70545;SDS011;58098;51.680;5.134;2023-09-30T06:33:19;45.97;;;19.83;;
70545;SDS011;58098;51.680;5.134;2023-09-30T06:35:46;46.47;;;19.95;;
70545;SDS011;58098;51.680;5.134;2023-09-30T06:38:20;49.67;;;20.45;;
70545;SDS011;58098;51.680;5.134;2023-09-30T06:40:46;44.17;;;19.88;;
70545;SDS011;58098;51.680;5.134;2023-09-30T06:43:13;43.85;;;19.30;;
70545;SDS011;58098;51.680;5.134;2023-09-30T06:45:40;50.90;;;21.43;;
70545;SDS011;58098;51.680;5.134;2023-09-30T06:48:09;51.55;;;20.63;;
70545;SDS011;58098;51.680;5.134;2023-09-30T06:50:47;48.92;;;22.65;;
70545;SDS011;58098;51.680;5.134;2023-09-30T06:53:14;48.03;;;18.98;;
70545;SDS011;58098;51.680;5.134;2023-09-30T06:55:40;55.03;;;22.50;;
70545;SDS011;58098;51.680;5.134;2023-09-30T06:58:06;46.00;;;20.13;;
70545;SDS011;58098;51.680;5.134;2023-09-30T07:00:35;54.83;;;20.17;;
70545;SDS011;58098;51.680;5.134;2023-09-30T07:03:06;49.08;;;21.05;;
70545;SDS011;58098;51.680;5.134;2023-09-30T07:05:31;51.63;;;20.47;;
70545;SDS011;58098;51.680;5.134;2023-09-30T07:07:56;56.67;;;22.77;;
70545;SDS011;58098;51.680;5.134;2023-09-30T07:10:22;51.45;;;22.00;;
70545;SDS011;58098;51.680;5.134;2023-09-30T07:12:47;53.70;;;21.00;;
70545;SDS011;58098;51.680;5.134;2023-09-30T07:15:13;56.00;;;21.57;;
70545;SDS011;58098;51.680;5.134;2023-09-30T07:17:42;55.72;;;22.63;;
70545;SDS011;58098;51.680;5.134;2023-09-30T07:20:08;63.35;;;25.02;;
70545;SDS011;58098;51.680;5.134;2023-09-30T07:22:35;53.67;;;22.90;;
70545;SDS011;58098;51.680;5.134;2023-09-30T07:25:00;48.90;;;21.83;;
70545;SDS011;58098;51.680;5.134;2023-09-30T07:27:26;68.03;;;24.33;;
70545;SDS011;58098;51.680;5.134;2023-09-30T07:29:51;63.23;;;24.47;;
70545;SDS011;58098;51.680;5.134;2023-09-30T07:32:16;60.10;;;24.93;;
70545;SDS011;58098;51.680;5.134;2023-09-30T07:34:42;55.45;;;21.63;;
70545;SDS011;58098;51.680;5.134;2023-09-30T07:37:07;61.50;;;24.10;;
70545;SDS011;58098;51.680;5.134;2023-09-30T07:39:33;63.20;;;24.87;;
70545;SDS011;58098;51.680;5.134;2023-09-30T07:41:59;52.38;;;23.48;;
70545;SDS011;58098;51.680;5.134;2023-09-30T07:44:26;68.25;;;25.25;;
70545;SDS011;58098;51.680;5.134;2023-09-30T07:46:51;56.27;;;22.60;;
70545;SDS011;58098;51.680;5.134;2023-09-30T07:49:17;55.05;;;21.52;;
70545;SDS011;58098;51.680;5.134;2023-09-30T07:51:42;68.13;;;25.57;;
70545;SDS011;58098;51.680;5.134;2023-09-30T07:54:07;50.70;;;21.57;;
70545;SDS011;58098;51.680;5.134;2023-09-30T07:56:33;74.30;;;27.37;;
70545;SDS011;58098;51.680;5.134;2023-09-30T07:58:59;69.28;;;27.45;;
70545;SDS011;58098;51.680;5.134;2023-09-30T08:01:24;83.50;;;29.17;;
70545;SDS011;58098;51.680;5.134;2023-09-30T08:03:50;82.93;;;29.20;;
70545;SDS011;58098;51.680;5.134;2023-09-30T08:06:15;76.45;;;28.02;;
70545;SDS011;58098;51.680;5.134;2023-09-30T08:08:40;80.07;;;29.10;;
70545;SDS011;58098;51.680;5.134;2023-09-30T08:11:06;79.93;;;28.80;;
70545;SDS011;58098;51.680;5.134;2023-09-30T08:13:31;75.40;;;27.33;;
70545;SDS011;58098;51.680;5.134;2023-09-30T08:16:00;82.85;;;28.35;;
70545;SDS011;58098;51.680;5.134;2023-09-30T08:18:26;80.18;;;27.02;;
70545;SDS011;58098;51.680;5.134;2023-09-30T08:20:51;69.13;;;25.30;;
70545;SDS011;58098;51.680;5.134;2023-09-30T08:23:17;73.23;;;26.13;;
70545;SDS011;58098;51.680;5.134;2023-09-30T08:25:42;72.10;;;27.23;;
70545;SDS011;58098;51.680;5.134;2023-09-30T08:28:07;66.70;;;23.90;;
70545;SDS011;58098;51.680;5.134;2023-09-30T08:30:34;71.10;;;25.75;;
70545;SDS011;58098;51.680;5.134;2023-09-30T08:33:00;73.77;;;24.17;;
70545;SDS011;58098;51.680;5.134;2023-09-30T08:35:25;74.00;;;25.47;;
70545;SDS011;58098;51.680;5.134;2023-09-30T08:37:51;66.93;;;24.98;;
70545;SDS011;58098;51.680;5.134;2023-09-30T08:40:22;61.00;;;23.57;;
70545;SDS011;58098;51.680;5.134;2023-09-30T08:42:51;63.25;;;24.17;;
70545;SDS011;58098;51.680;5.134;2023-09-30T08:45:18;60.77;;;23.20;;
70545;SDS011;58098;51.680;5.134;2023-09-30T08:47:44;57.17;;;22.88;;
70545;SDS011;58098;51.680;5.134;2023-09-30T08:50:11;57.38;;;23.38;;
70545;SDS011;58098;51.680;5.134;2023-09-30T08:52:40;55.88;;;22.05;;
70545;SDS011;58098;51.680;5.134;2023-09-30T08:55:08;48.70;;;21.42;;
70545;SDS011;58098;51.680;5.134;2023-09-30T08:57:36;51.67;;;20.40;;
70545;SDS011;58098;51.680;5.134;2023-09-30T09:00:06;60.28;;;21.02;;
70545;SDS011;58098;51.680;5.134;2023-09-30T09:02:36;50.28;;;18.90;;
70545;SDS011;58098;51.680;5.134;2023-09-30T09:05:02;51.13;;;19.23;;
70545;SDS011;58098;51.680;5.134;2023-09-30T09:07:28;46.00;;;19.23;;
70545;SDS011;58098;51.680;5.134;2023-09-30T09:10:03;49.97;;;18.97;;
70545;SDS011;58098;51.680;5.134;2023-09-30T09:12:33;52.65;;;20.98;;
70545;SDS011;58098;51.680;5.134;2023-09-30T09:14:59;47.42;;;19.20;;
70545;SDS011;58098;51.680;5.134;2023-09-30T09:17:25;49.70;;;21.37;;
70545;SDS011;58098;51.680;5.134;2023-09-30T09:20:06;53.08;;;20.65;;
70545;SDS011;58098;51.680;5.134;2023-09-30T09:22:41;55.40;;;22.92;;
70545;SDS011;58098;51.680;5.134;2023-09-30T09:25:07;53.70;;;21.60;;
70545;SDS011;58098;51.680;5.134;2023-09-30T09:27:33;58.10;;;22.85;;
70545;SDS011;58098;51.680;5.134;2023-09-30T09:32:54;54.93;;;22.77;;
70545;SDS011;58098;51.680;5.134;2023-09-30T09:35:32;58.42;;;22.38;;
70545;SDS011;58098;51.680;5.134;2023-09-30T09:40:32;57.67;;;23.10;;
70545;SDS011;58098;51.680;5.134;2023-09-30T09:43:02;55.88;;;22.65;;
70545;SDS011;58098;51.680;5.134;2023-09-30T09:45:34;52.92;;;22.05;;
70545;SDS011;58098;51.680;5.134;2023-09-30T09:48:02;53.55;;;21.13;;
70545;SDS011;58098;51.680;5.134;2023-09-30T09:50:29;46.13;;;20.70;;
70545;SDS011;58098;51.680;5.134;2023-09-30T09:52:56;54.85;;;23.45;;
70545;SDS011;58098;51.680;5.134;2023-09-30T09:55:24;52.67;;;22.42;;
70545;SDS011;58098;51.680;5.134;2023-09-30T09:57:52;52.35;;;22.05;;
70545;SDS011;58098;51.680;5.134;2023-09-30T10:00:20;55.83;;;23.38;;
70545;SDS011;58098;51.680;5.134;2023-09-30T10:02:48;59.83;;;24.27;;
70545;SDS011;58098;51.680;5.134;2023-09-30T10:05:14;59.08;;;24.15;;
70545;SDS011;58098;51.680;5.134;2023-09-30T10:10:22;53.30;;;23.33;;
70545;SDS011;58098;51.680;5.134;2023-09-30T10:12:48;58.50;;;25.63;;
70545;SDS011;58098;51.680;5.134;2023-09-30T10:17:58;56.25;;;24.80;;
70545;SDS011;58098;51.680;5.134;2023-09-30T10:20:33;48.87;;;21.90;;
70545;SDS011;58098;51.680;5.134;2023-09-30T10:26:19;46.30;;;20.75;;
70545;SDS011;58098;51.680;5.134;2023-09-30T10:28:45;47.38;;;20.10;;
70545;SDS011;58098;51.680;5.134;2023-09-30T10:31:13;48.80;;;19.83;;
70545;SDS011;58098;51.680;5.134;2023-09-30T10:38:56;37.10;;;17.23;;
70545;SDS011;58098;51.680;5.134;2023-09-30T10:44:31;34.88;;;15.77;;
70545;SDS011;58098;51.680;5.134;2023-09-30T10:46:58;36.05;;;15.38;;
70545;SDS011;58098;51.680;5.134;2023-09-30T10:51:50;38.43;;;15.87;;
70545;SDS011;58098;51.680;5.134;2023-09-30T10:54:23;36.72;;;15.85;;
70545;SDS011;58098;51.680;5.134;2023-09-30T10:56:50;33.30;;;14.03;;
70545;SDS011;58098;51.680;5.134;2023-09-30T10:59:24;35.35;;;14.63;;
70545;SDS011;58098;51.680;5.134;2023-09-30T11:01:51;36.25;;;13.95;;
70545;SDS011;58098;51.680;5.134;2023-09-30T11:04:18;31.23;;;13.30;;
70545;SDS011;58098;51.680;5.134;2023-09-30T11:06:45;28.83;;;11.52;;
70545;SDS011;58098;51.680;5.134;2023-09-30T11:09:15;28.23;;;10.17;;
70545;SDS011;58098;51.680;5.134;2023-09-30T11:11:42;24.70;;;10.70;;
70545;SDS011;58098;51.680;5.134;2023-09-30T11:14:20;29.45;;;11.50;;
70545;SDS011;58098;51.680;5.134;2023-09-30T11:16:46;31.70;;;11.65;;
70545;SDS011;58098;51.680;5.134;2023-09-30T11:19:12;31.05;;;12.95;;
70545;SDS011;58098;51.680;5.134;2023-09-30T11:21:38;32.03;;;12.90;;
70545;SDS011;58098;51.680;5.134;2023-09-30T11:24:04;33.20;;;12.50;;
70545;SDS011;58098;51.680;5.134;2023-09-30T11:26:31;20.23;;;9.15;;
70545;SDS011;58098;51.680;5.134;2023-09-30T11:29:04;18.85;;;8.85;;
70545;SDS011;58098;51.680;5.134;2023-09-30T11:31:48;23.07;;;9.63;;
70545;SDS011;58098;51.680;5.134;2023-09-30T11:34:16;20.23;;;10.07;;
70545;SDS011;58098;51.680;5.134;2023-09-30T11:39:21;20.15;;;8.73;;
70545;SDS011;58098;51.680;5.134;2023-09-30T11:41:56;16.08;;;8.27;;
70545;SDS011;58098;51.680;5.134;2023-09-30T11:44:22;20.87;;;8.77;;
70545;SDS011;58098;51.680;5.134;2023-09-30T11:46:55;21.48;;;8.80;;
70545;SDS011;58098;51.680;5.134;2023-09-30T11:51:57;16.67;;;8.90;;
70545;SDS011;58098;51.680;5.134;2023-09-30T11:54:34;23.80;;;9.90;;
70545;SDS011;58098;51.680;5.134;2023-09-30T11:57:08;32.97;;;10.97;;
70545;SDS011;58098;51.680;5.134;2023-09-30T11:59:39;21.30;;;8.35;;
70545;SDS011;58098;51.680;5.134;2023-09-30T12:02:06;20.48;;;9.55;;
70545;SDS011;58098;51.680;5.134;2023-09-30T12:04:35;17.15;;;8.23;;
70545;SDS011;58098;51.680;5.134;2023-09-30T12:07:01;16.60;;;7.45;;
70545;SDS011;58098;51.680;5.134;2023-09-30T12:09:27;14.73;;;6.33;;
70545;SDS011;58098;51.680;5.134;2023-09-30T12:11:53;10.27;;;5.03;;
70545;SDS011;58098;51.680;5.134;2023-09-30T12:14:20;12.85;;;5.70;;
70545;SDS011;58098;51.680;5.134;2023-09-30T12:16:46;12.77;;;5.60;;
70545;SDS011;58098;51.680;5.134;2023-09-30T12:19:21;11.32;;;4.68;;
70545;SDS011;58098;51.680;5.134;2023-09-30T12:21:47;13.63;;;4.65;;
70545;SDS011;58098;51.680;5.134;2023-09-30T12:24:16;9.57;;;4.47;;
70545;SDS011;58098;51.680;5.134;2023-09-30T12:26:49;9.80;;;4.47;;
70545;SDS011;58098;51.680;5.134;2023-09-30T12:29:16;10.45;;;4.05;;
70545;SDS011;58098;51.680;5.134;2023-09-30T12:31:43;9.57;;;3.75;;
70545;SDS011;58098;51.680;5.134;2023-09-30T12:34:12;10.10;;;3.90;;
70545;SDS011;58098;51.680;5.134;2023-09-30T12:36:39;10.25;;;4.45;;
70545;SDS011;58098;51.680;5.134;2023-09-30T12:39:04;15.90;;;6.80;;
70545;SDS011;58098;51.680;5.134;2023-09-30T12:41:36;11.30;;;4.88;;
70545;SDS011;58098;51.680;5.134;2023-09-30T12:44:08;12.88;;;5.70;;
70545;SDS011;58098;51.680;5.134;2023-09-30T12:46:35;13.48;;;5.53;;
70545;SDS011;58098;51.680;5.134;2023-09-30T12:49:02;12.60;;;5.10;;
70545;SDS011;58098;51.680;5.134;2023-09-30T12:51:31;11.60;;;4.73;;
70545;SDS011;58098;51.680;5.134;2023-09-30T12:53:58;13.30;;;5.03;;
70545;SDS011;58098;51.680;5.134;2023-09-30T12:56:24;12.43;;;5.05;;
70545;SDS011;58098;51.680;5.134;2023-09-30T12:58:49;12.50;;;4.90;;
70545;SDS011;58098;51.680;5.134;2023-09-30T13:01:15;13.77;;;4.72;;
70545;SDS011;58098;51.680;5.134;2023-09-30T13:03:43;14.60;;;4.80;;
70545;SDS011;58098;51.680;5.134;2023-09-30T13:06:09;12.23;;;4.47;;
70545;SDS011;58098;51.680;5.134;2023-09-30T13:08:34;12.73;;;4.10;;
70545;SDS011;58098;51.680;5.134;2023-09-30T13:11:01;14.45;;;4.45;;
70545;SDS011;58098;51.680;5.134;2023-09-30T13:13:28;13.48;;;4.80;;
70545;SDS011;58098;51.680;5.134;2023-09-30T13:15:55;14.40;;;5.15;;
70545;SDS011;58098;51.680;5.134;2023-09-30T13:18:21;15.30;;;5.23;;
70545;SDS011;58098;51.680;5.134;2023-09-30T13:20:47;12.40;;;4.90;;
70545;SDS011;58098;51.680;5.134;2023-09-30T13:23:12;11.85;;;5.07;;
70545;SDS011;58098;51.680;5.134;2023-09-30T13:25:37;13.43;;;4.83;;
70545;SDS011;58098;51.680;5.134;2023-09-30T13:28:03;13.50;;;5.47;;
70545;SDS011;58098;51.680;5.134;2023-09-30T13:30:28;17.77;;;6.60;;
70545;SDS011;58098;51.680;5.134;2023-09-30T13:32:54;13.70;;;5.55;;
70545;SDS011;58098;51.680;5.134;2023-09-30T13:35:21;13.68;;;5.00;;
70545;SDS011;58098;51.680;5.134;2023-09-30T13:37:46;15.63;;;5.47;;
70545;SDS011;58098;51.680;5.134;2023-09-30T13:40:12;16.23;;;5.70;;
70545;SDS011;58098;51.680;5.134;2023-09-30T13:42:38;13.50;;;5.32;;
70545;SDS011;58098;51.680;5.134;2023-09-30T13:45:04;11.50;;;5.18;;
70545;SDS011;58098;51.680;5.134;2023-09-30T13:47:32;12.57;;;5.10;;
70545;SDS011;58098;51.680;5.134;2023-09-30T13:49:58;13.77;;;4.80;;
70545;SDS011;58098;51.680;5.134;2023-09-30T13:52:23;16.57;;;7.50;;
70545;SDS011;58098;51.680;5.134;2023-09-30T13:54:48;14.43;;;5.30;;
70545;SDS011;58098;51.680;5.134;2023-09-30T13:57:14;13.70;;;4.87;;
70545;SDS011;58098;51.680;5.134;2023-09-30T13:59:39;12.25;;;4.78;;
70545;SDS011;58098;51.680;5.134;2023-09-30T14:02:05;12.43;;;4.90;;
70545;SDS011;58098;51.680;5.134;2023-09-30T14:04:31;15.13;;;5.00;;
70545;SDS011;58098;51.680;5.134;2023-09-30T14:06:57;13.10;;;5.25;;
70545;SDS011;58098;51.680;5.134;2023-09-30T14:09:25;9.45;;;4.57;;
70545;SDS011;58098;51.680;5.134;2023-09-30T14:11:51;12.32;;;4.45;;
70545;SDS011;58098;51.680;5.134;2023-09-30T14:14:17;13.97;;;4.33;;
70545;SDS011;58098;51.680;5.134;2023-09-30T14:16:42;11.47;;;4.50;;
70545;SDS011;58098;51.680;5.134;2023-09-30T14:19:07;15.00;;;4.83;;
70545;SDS011;58098;51.680;5.134;2023-09-30T14:21:33;11.70;;;4.87;;
70545;SDS011;58098;51.680;5.134;2023-09-30T14:23:58;13.00;;;4.47;;
70545;SDS011;58098;51.680;5.134;2023-09-30T14:26:23;11.52;;;4.43;;
70545;SDS011;58098;51.680;5.134;2023-09-30T14:28:49;12.10;;;4.30;;
70545;SDS011;58098;51.680;5.134;2023-09-30T14:31:14;10.63;;;4.70;;
70545;SDS011;58098;51.680;5.134;2023-09-30T14:33:40;11.47;;;4.60;;
70545;SDS011;58098;51.680;5.134;2023-09-30T14:36:05;11.53;;;4.27;;
70545;SDS011;58098;51.680;5.134;2023-09-30T14:38:31;11.73;;;4.60;;
70545;SDS011;58098;51.680;5.134;2023-09-30T14:40:56;13.07;;;4.40;;
70545;SDS011;58098;51.680;5.134;2023-09-30T14:43:22;10.88;;;4.22;;
70545;SDS011;58098;51.680;5.134;2023-09-30T14:45:47;12.63;;;4.33;;
70545;SDS011;58098;51.680;5.134;2023-09-30T14:48:12;13.67;;;4.13;;
70545;SDS011;58098;51.680;5.134;2023-09-30T14:50:47;9.95;;;4.28;;
70545;SDS011;58098;51.680;5.134;2023-09-30T14:53:16;11.27;;;4.40;;
70545;SDS011;58098;51.680;5.134;2023-09-30T14:55:41;16.02;;;4.75;;